Accueil
METAR-TAF:

METAR-TAF

Aéroports :

Aéroport de La Grande-4

La Grande-4, Québec, Canada

latitude: 53-45N, longitude: 073-40W, altitude: 306 m

Observation

Le bulletin a été fait il y a 1 heure et 2 minutes, à 11:00 UTC
Vent 2 kt de direction variable
Température -23°C
Humidité 84%
Pression 1005 hPa
Visibilité: 14.5 km
Ciel clair

METAR: CYAH 291100Z AUTO VRB02KT 9SM CLR M23/M25 A2967 RMK SLP082

Heure: 07:02 (12:02 UTC)

Prévision

Le bulletin a été fait il y a 24 minutes, à 11:38 UTC
Prévision valable du 29 à 12 UTC au 29 à 22 UTC
Vent 5 kt de est
Visibilité: 10 km
Ciel clair

TAF: CYAH 291138Z 2912/2922 08005KT P6SM SKC RMK FCST BASED ON AUTO OBS. NXT FCST BY 291800Z

Observations et prévisions météorologiques de plus de 4000 aéroports (messages METAR et TAF).

Les stations disponibles sont représentées par des disques jaunes et rouges sur la carte.

Passer la souris dessus pour voir le nom de la station.

Cliquer dessus pour voir les observations et prévisions météorologiques.

Pour changer de carte: cliquez sur les boutons verts avec une croix noire pour zoomer, sur le bouton vert avec un tiret pour effectuer un zoom arrière, ou sur les flèches vertes pour les cartes adjacentes.


METAR-TAF: